Time;durP1;ratioP1;P1;durP2;ratioP2;P2;SDS_P1;SDS_P2;PMS_P1;PMS_P2;Temp;Humidity;BMP_temperature;BMP_pressure;BME280_temperature;BME280_humidity;BME280_pressure;Samples;Min_cycle;Max_cycle;Signal;HPM_P1;HPM_P2
2021/03/08 00:00:29;;;;;;;245.02;84.38;;;;;;;3.40;86.26;95440.63;5028284;28;20048;-65
2021/03/08 00:02:56;;;;;;;237.57;84.07;;;;;;;3.37;86.90;95422.72;5028068;28;20045;-65
2021/03/08 00:05:21;;;;;;;240.68;85.22;;;;;;;3.55;87.11;95464.44;5028097;28;20033;-64
2021/03/08 00:07:47;;;;;;;230.65;85.68;;;;;;;3.73;86.98;95467.72;5027785;28;20176;-65
2021/03/08 00:10:18;;;;;;;235.23;84.68;;;;;;;3.89;87.42;95493.91;5028678;28;20549;-65
2021/03/08 00:12:45;;;;;;;242.27;85.15;;;;;;;3.98;87.61;95493.41;5028354;28;20037;-65
2021/03/08 00:15:11;;;;;;;295.20;99.35;;;;;;;4.34;87.04;95495.19;5027984;28;20124;-65
2021/03/08 00:17:37;;;;;;;256.58;91.90;;;;;;;4.54;87.57;95480.56;5027915;28;20041;-65
2021/03/08 00:20:05;;;;;;;270.52;91.22;;;;;;;4.61;87.15;95467.97;5028310;28;20041;-64
2021/03/08 00:22:30;;;;;;;248.30;88.45;;;;;;;4.79;86.21;95498.31;5031195;28;20083;-64
2021/03/08 00:24:55;;;;;;;230.45;85.45;;;;;;;4.52;86.46;95422.88;5033749;28;20034;-65
2021/03/08 00:27:21;;;;;;;252.73;88.72;;;;;;;4.77;85.85;95458.25;5031388;28;20065;-66
2021/03/08 00:29:46;;;;;;;216.45;80.68;;;;;;;4.34;85.05;95392.50;5031597;28;20037;-65
2021/03/08 00:32:11;;;;;;;286.90;93.50;;;;;;;4.54;84.33;95462.91;5031382;28;20048;-65
2021/03/08 00:34:37;;;;;;;221.93;76.38;;;;;;;3.46;82.64;95413.34;5031539;28;20045;-64
2021/03/08 00:37:03;;;;;;;210.10;78.40;;;;;;;3.53;83.92;95463.09;5033311;28;20026;-64
2021/03/08 00:39:28;;;;;;;233.93;81.00;;;;;;;3.36;85.68;95450.06;5029947;28;20570;-64
2021/03/08 00:41:54;;;;;;;301.27;93.82;;;;;;;3.40;85.42;95456.41;5031298;28;20034;-65
2021/03/08 00:44:19;;;;;;;224.48;79.97;;;;;;;3.34;85.77;95460.84;5046496;28;20040;-65
2021/03/08 00:46:44;;;;;;;241.48;84.88;;;;;;;3.34;86.06;95492.41;5030718;28;20049;-64
2021/03/08 00:49:10;;;;;;;273.30;90.47;;;;;;;3.33;87.15;95474.25;5031766;28;20068;-66
2021/03/08 00:51:35;;;;;;;248.60;85.40;;;;;;;3.63;86.88;95482.41;5030702;28;20137;-65
2021/03/08 00:54:00;;;;;;;288.13;92.05;;;;;;;3.62;85.98;95467.63;5031161;28;20522;-66
2021/03/08 00:56:26;;;;;;;307.67;93.28;;;;;;;3.53;85.63;95453.38;5029852;28;20041;-64
2021/03/08 00:58:51;;;;;;;293.92;93.70;;;;;;;3.47;85.49;95453.56;5030708;28;20049;-64
2021/03/08 01:01:16;;;;;;;264.58;87.68;;;;;;;3.57;86.39;95474.69;5030733;28;20029;-66
2021/03/08 01:03:41;;;;;;;297.13;92.75;;;;;;;3.55;86.63;95451.28;5032744;28;20018;-64
2021/03/08 01:06:07;;;;;;;249.07;84.28;;;;;;;2.95;85.67;95359.56;5030883;28;20046;-64
2021/03/08 01:08:32;;;;;;;243.73;81.20;;;;;;;3.55;84.99;95455.75;5030361;28;20053;-64
2021/03/08 01:10:58;;;;;;;276.50;89.15;;;;;;;3.38;84.88;95440.91;5029603;28;20068;-65
2021/03/08 01:13:23;;;;;;;254.55;85.45;;;;;;;3.23;85.26;95425.00;5030272;28;20030;-65
2021/03/08 01:15:51;;;;;;;235.38;82.68;;;;;;;2.85;84.83;95391.78;5032560;28;20033;-65
2021/03/08 01:18:17;;;;;;;305.35;93.78;;;;;;;3.12;85.00;95458.28;5030533;28;20045;-65
2021/03/08 01:20:43;;;;;;;249.35;85.47;;;;;;;3.11;85.29;95458.53;5029332;28;20454;-64
2021/03/08 01:23:09;;;;;;;263.50;87.15;;;;;;;3.00;85.66;95455.00;5029071;28;20088;-64
2021/03/08 01:25:35;;;;;;;264.30;87.97;;;;;;;2.96;86.46;95461.78;5030396;28;20071;-63
2021/03/08 01:28:01;;;;;;;292.63;94.22;;;;;;;3.15;87.09;95454.34;5032122;28;20067;-63
2021/03/08 01:30:35;;;;;;;325.20;98.55;;;;;;;3.33;86.97;95448.75;5030447;28;20107;-63
2021/03/08 01:33:01;;;;;;;282.05;89.63;;;;;;;3.34;86.84;95428.50;5028544;28;20498;-65
2021/03/08 01:35:27;;;;;;;252.57;84.72;;;;;;;3.36;86.36;95427.19;5028883;28;20125;-65
2021/03/08 01:37:52;;;;;;;255.38;84.57;;;;;;;3.55;86.34;95446.03;5029755;28;20053;-64
2021/03/08 01:40:21;;;;;;;292.73;90.18;;;;;;;3.57;86.65;95438.66;5028971;28;20124;-65
2021/03/08 01:42:47;;;;;;;265.73;89.43;;;;;;;3.76;86.99;95448.78;5047195;28;20112;-63
2021/03/08 01:45:14;;;;;;;248.18;86.30;;;;;;;3.65;86.38;95419.00;5029949;28;20087;-68
2021/03/08 01:47:41;;;;;;;255.68;85.90;;;;;;;3.75;86.05;95449.84;5029791;28;20086;-68
2021/03/08 01:50:11;;;;;;;269.67;85.40;;;;;;;3.66;85.60;95436.38;5029747;28;20073;-63
2021/03/08 01:52:37;;;;;;;214.73;77.70;;;;;;;3.29;85.06;95413.47;5029716;28;20041;-63
2021/03/08 01:55:04;;;;;;;203.82;72.63;;;;;;;2.84;84.87;95433.03;5031884;28;20467;-63
2021/03/08 01:57:29;;;;;;;220.00;73.78;;;;;;;2.47;86.13;95425.03;5029508;28;20406;-61
2021/03/08 01:59:54;;;;;;;213.23;74.28;;;;;;;2.67;86.33;95457.81;5028410;28;20033;-63
2021/03/08 02:02:21;;;;;;;223.70;76.95;;;;;;;2.78;86.63;95428.00;5029621;28;20183;-63
2021/03/08 02:04:46;;;;;;;289.08;88.40;;;;;;;2.98;86.66;95436.06;5029697;28;20045;-63
2021/03/08 02:07:12;;;;;;;274.48;88.18;;;;;;;3.21;87.25;95431.53;5031494;28;20029;-64
2021/03/08 02:09:37;;;;;;;177.30;68.40;;;;;;;3.17;86.79;95425.97;5029552;28;20049;-64
2021/03/08 02:12:38;;;;;;;174.57;69.30;;;;;;;3.48;87.44;95428.84;5029505;28;20589;-63
2021/03/08 02:15:28;;;;;;;182.85;67.75;;;;;;;3.63;86.94;95426.34;5028369;28;20046;-62
2021/03/08 02:18:10;;;;;;;187.77;70.78;;;;;;;3.62;86.43;95399.25;5029265;28;20046;-60
2021/03/08 02:20:54;;;;;;;215.50;75.68;;;;;;;3.88;86.47;95420.44;5029512;28;20503;-62
2021/03/08 02:23:55;;;;;;;183.88;71.00;;;;;;;3.75;83.76;95403.28;5027963;28;20087;-63
2021/03/08 02:26:42;;;;;;;182.18;69.53;;;;;;;3.79;84.61;95408.84;5029333;28;20483;-62
2021/03/08 02:29:17;;;;;;;153.07;62.58;;;;;;;3.65;84.08;95409.25;5028089;28;20029;-63
2021/03/08 02:31:46;;;;;;;181.30;66.95;;;;;;;3.63;85.35;95363.19;5029220;28;20657;-63
2021/03/08 02:34:18;;;;;;;217.90;75.32;;;;;;;3.88;85.46;95399.41;5031157;28;20021;-62
2021/03/08 02:36:46;;;;;;;199.25;70.22;;;;;;;3.96;84.89;95408.66;5029572;28;20038;-62
2021/03/08 02:39:26;;;;;;;174.93;64.93;;;;;;;3.90;84.85;95405.22;5027987;28;20037;-62
2021/03/08 02:41:55;;;;;;;167.82;64.88;;;;;;;3.76;84.57;95404.84;5029088;28;20526;-64
2021/03/08 02:44:27;;;;;;;190.40;67.10;;;;;;;3.58;84.27;95387.66;5028392;28;20092;-63
2021/03/08 02:46:55;;;;;;;208.75;71.38;;;;;;;3.54;83.84;95406.81;5029064;28;20072;-64
2021/03/08 02:49:27;;;;;;;170.40;63.63;;;;;;;3.18;83.38;95382.91;5028965;28;20068;-64
2021/03/08 02:51:57;;;;;;;163.07;62.88;;;;;;;3.05;83.37;95399.06;5029357;28;20451;-63
2021/03/08 02:54:25;;;;;;;147.18;58.90;;;;;;;2.86;83.46;95399.41;5027489;28;20038;-64
2021/03/08 02:56:53;;;;;;;145.20;57.72;;;;;;;2.66;83.51;95403.69;5028665;28;20056;-63
2021/03/08 02:59:22;;;;;;;159.32;62.15;;;;;;;2.48;83.86;95400.34;5028742;28;20038;-64
2021/03/08 03:01:49;;;;;;;168.02;61.78;;;;;;;2.29;83.49;95394.63;5028453;28;20038;-64
2021/03/08 03:04:16;;;;;;;158.05;61.38;;;;;;;2.01;84.62;95386.97;5029203;28;20018;-63
2021/03/08 03:06:44;;;;;;;183.13;65.65;;;;;;;2.05;84.10;95407.22;5028526;28;20034;-63
2021/03/08 03:09:12;;;;;;;185.95;68.43;;;;;;;1.89;85.25;95415.91;5027507;28;20040;-62
2021/03/08 03:11:43;;;;;;;180.63;65.05;;;;;;;1.59;86.48;95403.19;5027983;28;20037;-63
2021/03/08 03:14:11;;;;;;;184.65;66.95;;;;;;;1.70;87.32;95398.88;5028623;28;20042;-63
2021/03/08 03:16:39;;;;;;;185.13;65.95;;;;;;;1.77;86.72;95404.72;5028447;28;20037;-63
2021/03/08 03:19:06;;;;;;;184.23;66.22;;;;;;;1.85;86.39;95409.56;5030173;28;20106;-64
2021/03/08 03:21:35;;;;;;;178.90;65.45;;;;;;;1.91;86.23;95411.22;5028350;28;20092;-63
2021/03/08 03:24:04;;;;;;;182.65;66.43;;;;;;;1.52;86.49;95402.53;5028407;28;20481;-63
2021/03/08 03:26:30;;;;;;;186.98;65.13;;;;;;;1.21;87.88;95407.31;5028491;28;20438;-63
2021/03/08 03:28:57;;;;;;;196.88;67.03;;;;;;;1.80;87.52;95427.88;5028108;28;20042;-63
2021/03/08 03:31:23;;;;;;;195.65;65.50;;;;;;;1.78;86.88;95427.28;5028232;28;20029;-63
2021/03/08 03:33:49;;;;;;;204.50;70.00;;;;;;;1.78;86.68;95419.44;5028938;28;20706;-63
2021/03/08 03:36:15;;;;;;;195.05;67.43;;;;;;;1.60;86.99;95403.97;5043648;28;20091;-63
2021/03/08 03:38:41;;;;;;;193.18;68.88;;;;;;;1.66;86.55;95387.28;5027943;28;20120;-63
2021/03/08 03:41:07;;;;;;;193.02;66.82;;;;;;;1.54;87.44;95431.97;5026948;28;20044;-64
2021/03/08 03:43:34;;;;;;;179.77;65.63;;;;;;;1.63;87.12;95429.69;5028235;28;20022;-63
2021/03/08 03:46:01;;;;;;;170.95;64.03;;;;;;;1.74;86.99;95415.69;5028907;28;20369;-63
2021/03/08 03:48:26;;;;;;;145.68;58.88;;;;;;;1.70;87.03;95404.13;5043393;28;20383;-64
2021/03/08 03:50:52;;;;;;;143.85;58.13;;;;;;;1.79;86.85;95416.59;5028284;28;20492;-62
2021/03/08 03:53:17;;;;;;;133.00;54.92;;;;;;;1.83;86.39;95440.47;5028040;28;20034;-64
2021/03/08 03:55:43;;;;;;;129.35;54.42;;;;;;;1.39;86.55;95395.81;5045952;28;20152;-62
2021/03/08 03:58:15;;;;;;;135.00;53.55;;;;;;;1.71;86.64;95439.81;5033568;28;20032;-64
2021/03/08 04:00:47;;;;;;;135.75;54.65;;;;;;;1.52;87.29;95440.03;5031832;28;20049;-63
2021/03/08 04:03:18;;;;;;;127.28;49.70;;;;;;;1.36;87.54;95437.44;5031655;28;20495;-63
2021/03/08 04:05:44;;;;;;;106.38;46.72;;;;;;;1.09;87.62;95429.41;5031927;28;20037;-63
2021/03/08 04:08:12;;;;;;;133.15;53.80;;;;;;;1.26;87.33;95438.84;5030222;28;20179;-64
2021/03/08 04:10:40;;;;;;;111.40;47.80;;;;;;;1.06;87.57;95448.19;5031775;28;20046;-63
2021/03/08 04:13:10;;;;;;;121.18;50.35;;;;;;;1.25;86.64;95444.34;5033439;28;20647;-62
2021/03/08 04:15:37;;;;;;;112.45;48.45;;;;;;;1.02;86.42;95427.75;5031768;28;20038;-62
2021/03/08 04:18:05;;;;;;;122.35;51.10;;;;;;;0.97;87.05;95453.84;5031539;28;20073;-63
2021/03/08 04:20:32;;;;;;;119.55;52.20;;;;;;;0.89;86.64;95409.69;5031620;28;20538;-63
2021/03/08 04:23:11;;;;;;;108.47;48.22;;;;;;;1.00;86.59;95421.13;5031377;28;20061;-62
2021/03/08 04:25:40;;;;;;;141.65;54.40;;;;;;;1.07;85.68;95453.19;5030367;28;20037;-64
2021/03/08 04:28:06;;;;;;;130.48;51.90;;;;;;;0.66;86.18;95401.94;5033271;28;20029;-63
2021/03/08 04:30:32;;;;;;;113.53;49.20;;;;;;;0.77;86.16;95456.88;5030202;28;20099;-62
2021/03/08 04:32:58;;;;;;;109.38;48.65;;;;;;;0.54;86.92;95443.09;5029826;28;20487;-63
2021/03/08 04:35:28;;;;;;;111.65;49.92;;;;;;;0.59;87.17;95464.13;5029909;28;20045;-63
2021/03/08 04:37:57;;;;;;;124.03;50.38;;;;;;;0.58;87.12;95465.16;5029939;28;20080;-63
2021/03/08 04:40:22;;;;;;;151.15;56.42;;;;;;;0.43;87.35;95448.13;5029631;28;20030;-63
2021/03/08 04:42:49;;;;;;;127.05;55.10;;;;;;;0.45;87.02;95440.03;5032853;28;20446;-62
2021/03/08 04:45:18;;;;;;;128.07;51.97;;;;;;;0.61;87.21;95452.38;5030904;28;20100;-63
2021/03/08 04:47:45;;;;;;;125.80;53.05;;;;;;;0.55;86.80;95453.31;5031030;28;20044;-63
2021/03/08 04:50:11;;;;;;;108.47;48.28;;;;;;;0.45;86.59;95443.44;5031085;28;20085;-63
2021/03/08 04:52:38;;;;;;;141.73;57.15;;;;;;;0.79;86.57;95467.13;5030971;28;20034;-62
2021/03/08 04:55:07;;;;;;;123.10;53.53;;;;;;;0.68;86.15;95466.13;5031754;28;20120;-63
2021/03/08 04:57:34;;;;;;;139.75;57.05;;;;;;;0.85;85.35;95468.00;5030919;28;20073;-62
2021/03/08 05:00:00;;;;;;;157.05;60.78;;;;;;;0.71;85.40;95444.72;5031050;28;20052;-62
2021/03/08 05:02:25;;;;;;;161.13;61.90;;;;;;;0.90;85.12;95465.47;5029455;28;20041;-62
2021/03/08 05:04:52;;;;;;;241.45;76.63;;;;;;;0.73;85.33;95437.44;5030792;28;20048;-63
2021/03/08 05:07:21;;;;;;;151.88;59.28;;;;;;;0.89;85.14;95461.28;5030017;28;20383;-63
2021/03/08 05:09:48;;;;;;;134.90;56.58;;;;;;;0.57;84.47;95424.31;5031490;28;20037;-64
2021/03/08 05:12:15;;;;;;;123.88;52.95;;;;;;;0.62;84.96;95437.50;5030868;28;20037;-62
2021/03/08 05:14:43;;;;;;;153.75;59.00;;;;;;;0.65;85.26;95437.81;5030389;28;20503;-63
2021/03/08 05:17:09;;;;;;;155.65;60.13;;;;;;;0.85;85.14;95460.94;5029213;28;20045;-62
2021/03/08 05:19:38;;;;;;;184.18;65.60;;;;;;;0.84;85.03;95475.06;5030495;28;20112;-63
2021/03/08 05:22:04;;;;;;;220.65;73.22;;;;;;;0.81;85.03;95472.91;5032445;28;20049;-62
2021/03/08 05:24:30;;;;;;;195.40;70.65;;;;;;;0.65;84.70;95450.88;5029138;28;20512;-63
2021/03/08 05:26:56;;;;;;;231.07;76.13;;;;;;;0.11;84.87;95366.66;5029031;28;20050;-63
2021/03/08 05:29:22;;;;;;;213.55;72.65;;;;;;;0.43;84.83;95424.56;5029863;28;20095;-64
2021/03/08 05:31:48;;;;;;;201.65;73.95;;;;;;;0.62;84.93;95451.38;5029947;28;20116;-63
2021/03/08 05:34:17;;;;;;;179.82;66.10;;;;;;;0.57;85.70;95469.59;5032349;28;20120;-62
2021/03/08 05:36:45;;;;;;;140.40;56.95;;;;;;;0.40;85.92;95474.75;5029236;28;20044;-62
2021/03/08 05:39:12;;;;;;;121.60;51.10;;;;;;;0.27;86.29;95442.84;5030312;28;20049;-62
2021/03/08 05:41:54;;;;;;;123.75;53.00;;;;;;;0.40;87.18;95472.13;5029987;28;20041;-63
2021/03/08 05:44:22;;;;;;;128.73;54.05;;;;;;;0.30;86.68;95422.22;5030170;28;20077;-63
2021/03/08 05:46:53;;;;;;;122.68;52.15;;;;;;;0.66;87.49;95478.66;5029890;28;20044;-63
2021/03/08 05:49:45;;;;;;;128.70;56.03;;;;;;;0.81;86.51;95478.16;5028890;28;20040;-63
2021/03/08 05:52:50;;;;;;;116.82;51.45;;;;;;;0.83;85.56;95481.34;5032154;28;20037;-62
2021/03/08 05:55:39;;;;;;;99.63;40.90;;;;;;;-0.07;88.15;95485.28;5029091;28;20045;-63
2021/03/08 05:58:19;;;;;;;85.18;41.72;;;;;;;0.15;87.64;95480.25;5031532;28;20083;-62
2021/03/08 06:01:02;;;;;;;86.25;41.38;;;;;;;0.15;86.55;95482.06;5030057;28;20410;-64
2021/03/08 06:04:02;;;;;;;82.97;40.40;;;;;;;0.11;85.35;95471.28;5029535;28;20041;-64
2021/03/08 06:06:52;;;;;;;84.50;40.65;;;;;;;0.31;84.46;95477.94;5029832;28;20090;-63
2021/03/08 06:09:27;;;;;;;81.63;39.72;;;;;;;-0.02;84.38;95454.00;5029393;28;20045;-64
2021/03/08 06:11:54;;;;;;;76.35;38.42;;;;;;;0.22;84.58;95496.63;5029155;28;20459;-64
2021/03/08 06:14:26;;;;;;;82.85;40.47;;;;;;;0.51;84.46;95497.50;5029418;28;20129;-64
2021/03/08 06:16:54;;;;;;;83.15;38.25;;;;;;;-0.07;84.10;95474.81;5029257;28;20047;-63
2021/03/08 06:19:19;;;;;;;88.70;41.55;;;;;;;0.18;83.79;95503.34;5027603;28;20029;-63
2021/03/08 06:21:46;;;;;;;87.20;40.20;;;;;;;0.15;83.38;95498.56;5030721;28;20091;-63
2021/03/08 06:24:12;;;;;;;74.47;36.30;;;;;;;0.04;82.71;95503.81;5029085;28;20037;-63
2021/03/08 06:26:39;;;;;;;82.88;38.10;;;;;;;-0.09;83.49;95516.09;5039279;23;20057;-83
2021/03/08 06:29:07;;;;;;;67.13;34.17;;;;;;;-0.24;83.86;95521.00;5039696;28;20049;-83
2021/03/08 06:31:35;;;;;;;61.58;31.58;;;;;;;-0.35;82.42;95525.19;5036986;28;20499;-83
2021/03/08 06:34:00;;;;;;;64.80;33.80;;;;;;;0.13;83.46;95529.41;5012765;28;20172;-83
2021/03/08 06:36:26;;;;;;;53.28;29.20;;;;;;;-0.37;82.19;95527.22;4993924;28;20054;-80
2021/03/08 06:38:52;;;;;;;50.78;28.33;;;;;;;-0.51;82.07;95515.41;5019744;28;20042;-82
2021/03/08 06:41:18;;;;;;;43.85;26.58;;;;;;;-0.08;80.42;95543.84;5002821;28;20134;-83
2021/03/08 06:43:44;;;;;;;47.63;27.85;;;;;;;-0.08;80.39;95548.28;4992128;28;20114;-83
2021/03/08 06:46:13;;;;;;;46.97;27.83;;;;;;;-0.27;82.18;95547.56;4994375;28;20026;-83
2021/03/08 06:48:38;;;;;;;42.13;25.80;;;;;;;-0.05;80.43;95532.94;4991080;28;20096;-83
2021/03/08 06:51:08;;;;;;;50.80;28.83;;;;;;;0.37;80.67;95560.78;5005936;28;20442;-83
2021/03/08 06:53:33;;;;;;;45.72;28.25;;;;;;;0.41;80.85;95536.56;5010438;28;20107;-83
2021/03/08 06:56:14;;;;;;;43.78;27.45;;;;;;;0.57;80.62;95558.59;5011851;28;20034;-82
2021/03/08 06:58:39;;;;;;;42.15;26.33;;;;;;;0.66;79.90;95562.44;5011243;28;20095;-82
2021/03/08 07:01:29;;;;;;;40.63;25.63;;;;;;;0.95;80.76;95567.72;5013804;28;20424;-82
2021/03/08 07:03:56;;;;;;;44.13;26.08;;;;;;;0.98;80.16;95548.94;5012299;28;20044;-82
2021/03/08 07:06:21;;;;;;;39.05;25.08;;;;;;;1.07;80.27;95546.72;4994922;28;20036;-81
2021/03/08 07:08:47;;;;;;;43.17;26.20;;;;;;;1.30;80.02;95565.75;4990989;28;20564;-84
2021/03/08 07:11:22;;;;;;;40.22;25.80;;;;;;;1.53;78.88;95577.16;4992610;28;20038;-83
2021/03/08 07:13:49;;;;;;;34.38;23.08;;;;;;;1.37;75.42;95557.75;4996176;28;20396;-83
2021/03/08 07:16:14;;;;;;;38.05;25.30;;;;;;;1.94;78.36;95562.88;5028835;28;20022;-83
2021/03/08 07:18:40;;;;;;;31.45;23.20;;;;;;;2.35;77.98;95571.34;5010479;28;20053;-81
2021/03/08 07:21:12;;;;;;;34.70;22.42;;;;;;;2.09;73.63;95578.06;5024697;28;20065;-80
2021/03/08 07:23:38;;;;;;;27.67;20.98;;;;;;;1.68;73.63;95580.03;5001300;28;20501;-71
2021/03/08 07:26:07;;;;;;;29.50;21.92;;;;;;;2.19;73.74;95572.19;4996627;28;20113;-80
2021/03/08 07:28:33;;;;;;;32.88;22.98;;;;;;;2.57;76.36;95558.28;5008269;28;20080;-72
2021/03/08 07:30:58;;;;;;;30.40;20.80;;;;;;;2.85;75.88;95557.31;4991621;28;20464;-82
2021/03/08 07:33:24;;;;;;;28.08;21.30;;;;;;;3.10;76.39;95556.81;5008505;28;20514;-79
2021/03/08 07:35:53;;;;;;;27.67;19.77;;;;;;;3.43;73.99;95581.34;5010292;28;20034;-81
2021/03/08 07:38:36;;;;;;;28.67;19.52;;;;;;;3.63;73.96;95584.97;5011236;28;20038;-84
2021/03/08 07:41:21;;;;;;;25.73;18.92;;;;;;;3.61;73.01;95581.78;5010562;28;20054;-78
2021/03/08 07:43:51;;;;;;;17.92;16.08;;;;;;;3.35;66.34;95574.69;5010066;28;20037;-77
2021/03/08 07:46:32;;;;;;;18.08;16.17;;;;;;;3.52;67.71;95572.75;5010521;28;20037;-78
2021/03/08 07:48:58;;;;;;;18.42;16.38;;;;;;;3.72;68.59;95587.16;5027133;28;20029;-84
2021/03/08 07:51:24;;;;;;;18.92;15.88;;;;;;;3.74;67.92;95577.97;5010549;28;20030;-80
2021/03/08 07:54:00;;;;;;;21.65;15.60;;;;;;;3.58;66.22;95584.13;5013464;28;20088;-79
2021/03/08 07:56:25;;;;;;;19.58;17.00;;;;;;;3.59;69.19;95570.75;5000478;28;20030;-74
2021/03/08 07:58:52;;;;;;;18.90;16.30;;;;;;;3.57;69.44;95585.16;5008515;28;20393;-73
2021/03/08 08:01:17;;;;;;;18.58;16.67;;;;;;;3.44;69.26;95582.94;5008822;28;20503;-72
2021/03/08 08:03:43;;;;;;;22.20;16.60;;;;;;;3.27;70.45;95572.50;5009962;28;20050;-71
2021/03/08 08:06:10;;;;;;;20.35;16.33;;;;;;;3.20;70.07;95587.69;5008305;28;20030;-75
2021/03/08 08:08:53;;;;;;;20.38;15.65;;;;;;;2.92;65.61;95588.66;5008184;28;20492;-74
2021/03/08 08:11:27;;;;;;;22.00;17.05;;;;;;;2.95;69.46;95591.59;5006821;28;20462;-75
2021/03/08 08:14:00;;;;;;;18.05;16.17;;;;;;;2.77;71.23;95555.91;5008635;28;20029;-76
2021/03/08 08:16:39;;;;;;;22.27;16.83;;;;;;;3.02;71.75;95600.09;5008232;28;20026;-82
2021/03/08 08:19:07;;;;;;;20.52;17.58;;;;;;;3.08;72.12;95598.31;4992842;28;20030;-79
2021/03/08 08:21:42;;;;;;;22.52;17.33;;;;;;;3.05;68.70;95596.97;5007343;28;20034;-80
2021/03/08 08:24:20;;;;;;;20.58;16.70;;;;;;;3.21;69.26;95594.50;5009720;28;20523;-78
2021/03/08 08:26:51;;;;;;;18.73;16.30;;;;;;;3.22;70.62;95590.84;4998262;28;20054;-78
2021/03/08 08:29:22;;;;;;;19.42;16.48;;;;;;;3.33;70.26;95609.13;5013791;28;20030;-79
2021/03/08 08:32:04;;;;;;;21.63;16.48;;;;;;;3.41;69.19;95604.47;5009765;28;20526;-80
2021/03/08 08:34:40;;;;;;;21.00;16.98;;;;;;;3.31;68.47;95600.69;5006424;28;20030;-77
2021/03/08 08:37:12;;;;;;;17.92;16.13;;;;;;;3.44;69.42;95603.97;4992189;28;20057;-78
2021/03/08 08:39:40;;;;;;;16.83;14.95;;;;;;;3.28;68.16;95582.00;4990654;28;20052;-82
2021/03/08 08:42:13;;;;;;;22.48;15.38;;;;;;;3.18;63.99;95592.41;4991605;28;20042;-84
2021/03/08 08:44:38;;;;;;;21.15;16.35;;;;;;;3.21;67.27;95574.28;5004137;28;20058;-80
2021/03/08 08:47:20;;;;;;;20.42;16.52;;;;;;;3.51;66.24;95602.72;5005928;28;20061;-79
2021/03/08 08:49:50;;;;;;;18.17;15.32;;;;;;;3.57;68.00;95604.38;4995841;28;20046;-82
2021/03/08 08:52:47;;;;;;;22.92;16.90;;;;;;;3.63;67.58;95602.56;5011775;28;20507;-77
2021/03/08 08:55:15;;;;;;;18.33;14.82;;;;;;;3.26;63.24;95549.88;5015273;28;20037;-79
2021/03/08 08:58:19;;;;;;;22.52;14.75;;;;;;;3.70;66.30;95589.25;4993867;28;20507;-80
2021/03/08 09:01:14;;;;;;;18.83;14.02;;;;;;;3.69;64.81;95592.94;4994423;28;20061;-81
2021/03/08 09:04:16;;;;;;;19.00;15.05;;;;;;;3.88;64.71;95596.75;5013639;28;20046;-81
2021/03/08 09:06:43;;;;;;;19.95;14.25;;;;;;;4.05;64.55;95596.66;4994527;28;20046;-82
2021/03/08 09:09:10;;;;;;;16.73;14.60;;;;;;;4.04;64.12;95595.84;5009452;28;20042;-78
2021/03/08 09:11:48;;;;;;;16.63;14.63;;;;;;;4.28;64.84;95582.34;5028406;28;20038;-80
2021/03/08 09:14:37;;;;;;;13.77;12.48;;;;;;;4.50;65.40;95583.00;5013172;28;20034;-78
2021/03/08 09:17:06;;;;;;;14.25;12.85;;;;;;;4.57;61.84;95588.06;5013075;28;20049;-76
2021/03/08 09:19:31;;;;;;;18.45;13.13;;;;;;;4.55;62.53;95585.66;5011315;28;20117;-75
2021/03/08 09:22:37;;;;;;;16.83;12.80;;;;;;;4.52;60.46;95583.56;5012983;28;20494;-75
2021/03/08 09:25:09;;;;;;;16.35;13.27;;;;;;;4.46;61.96;95581.94;5025225;28;20136;-78
2021/03/08 09:27:38;;;;;;;14.98;13.38;;;;;;;4.49;60.31;95597.22;5009459;28;20042;-71
2021/03/08 09:30:35;;;;;;;17.27;12.00;;;;;;;4.23;58.64;95590.19;5010989;28;20042;-74
2021/03/08 09:33:08;;;;;;;17.05;12.63;;;;;;;3.79;58.24;95596.44;4996179;28;20042;-71
2021/03/08 09:35:35;;;;;;;;;;;;;;;3.54;55.91;95593.56;5002422;28;20069;-74
2021/03/08 09:38:06;;;;;;;16.95;12.68;;;;;;;3.58;55.74;95600.72;5003757;28;20064;-74
2021/03/08 09:40:34;;;;;;;18.23;11.73;;;;;;;3.19;57.39;95560.59;4993234;28;20037;-72
2021/03/08 09:43:00;;;;;;;15.13;12.90;;;;;;;3.12;58.42;95604.66;5013025;28;20553;-74
2021/03/08 09:45:32;;;;;;;17.23;13.10;;;;;;;3.46;58.60;95583.47;5010523;28;20034;-73
2021/03/08 09:48:04;;;;;;;16.02;13.27;;;;;;;3.50;57.79;95558.28;4995799;28;20034;-73
2021/03/08 09:50:30;;;;;;;;;;;;;;;3.99;58.95;95603.69;4991973;28;20050;-71
2021/03/08 09:52:56;;;;;;;16.42;12.30;;;;;;;3.88;56.89;95607.28;4988968;28;19918;-73
2021/03/08 09:55:32;;;;;;;14.57;13.18;;;;;;;3.94;57.52;95585.22;4989087;28;20515;-70
2021/03/08 09:57:57;;;;;;;19.42;13.23;;;;;;;3.75;56.38;95600.59;5010798;28;20041;-70
2021/03/08 10:00:28;;;;;;;20.33;13.63;;;;;;;3.70;57.25;95586.63;5009845;28;20038;-69
2021/03/08 10:02:58;;;;;;;15.07;13.52;;;;;;;3.70;59.53;95599.78;5009962;28;20193;-67
2021/03/08 10:05:45;;;;;;;15.65;13.45;;;;;;;3.42;57.79;95596.31;5008204;28;20037;-70
2021/03/08 10:08:14;;;;;;;19.27;12.95;;;;;;;3.44;57.40;95588.22;5009151;28;20381;-74
2021/03/08 10:10:45;;;;;;;13.88;12.50;;;;;;;3.11;58.75;95555.75;5005676;28;20443;-74
2021/03/08 10:13:11;;;;;;;19.65;14.18;;;;;;;3.86;58.41;95601.50;4992501;28;20440;-76
2021/03/08 10:15:56;;;;;;;16.27;13.70;;;;;;;4.27;57.71;95591.28;5010727;28;20518;-79
2021/03/08 10:18:27;;;;;;;18.65;13.32;;;;;;;4.41;56.64;95597.72;4993329;28;20042;-77
2021/03/08 10:21:04;;;;;;;16.05;13.18;;;;;;;4.59;57.11;95597.28;4990977;28;20027;-72
2021/03/08 10:23:34;;;;;;;15.05;13.48;;;;;;;4.65;56.40;95600.75;4990132;28;20460;-71
2021/03/08 10:26:03;;;;;;;16.33;13.18;;;;;;;4.84;56.42;95599.28;4996055;28;20069;-72
2021/03/08 10:28:38;;;;;;;15.82;11.98;;;;;;;4.86;55.10;95601.66;5008656;28;20030;-73
2021/03/08 10:31:05;;;;;;;13.23;10.48;;;;;;;4.10;53.55;95602.75;5013019;28;20476;-78
2021/03/08 10:33:32;;;;;;;16.30;10.52;;;;;;;4.68;53.97;95597.63;5011310;28;20120;-76
2021/03/08 10:35:58;;;;;;;10.75;9.65;;;;;;;4.78;52.54;95581.84;5011747;28;20046;-79
2021/03/08 10:38:28;;;;;;;12.70;11.27;;;;;;;5.19;52.76;95590.72;5010950;28;20107;-80
2021/03/08 10:40:58;;;;;;;16.30;11.65;;;;;;;5.01;50.77;95571.94;5010802;28;20112;-82
2021/03/08 10:43:24;;;;;;;12.07;10.80;;;;;;;5.27;50.14;95588.63;5011455;28;20492;-82
2021/03/08 10:45:53;;;;;;;13.13;11.57;;;;;;;5.59;51.15;95585.84;5012516;28;20022;-76
2021/03/08 10:48:18;;;;;;;10.90;9.70;;;;;;;4.79;48.30;95585.28;5009900;28;20072;-76
2021/03/08 10:50:50;;;;;;;13.25;10.77;;;;;;;4.77;48.74;95587.38;5009895;28;20053;-75
2021/03/08 10:53:16;;;;;;;11.27;10.23;;;;;;;5.22;49.81;95571.75;5008852;28;20112;-75
2021/03/08 10:55:42;;;;;;;13.40;10.35;;;;;;;5.63;51.07;95563.94;5024741;28;20044;-73
2021/03/08 10:58:09;;;;;;;17.50;11.15;;;;;;;5.77;50.43;95576.63;5011293;28;20021;-74
2021/03/08 11:00:35;;;;;;;13.75;11.73;;;;;;;5.90;52.54;95587.47;5009155;28;20491;-74
2021/03/08 11:03:01;;;;;;;15.10;11.43;;;;;;;6.22;50.91;95581.94;5009091;28;20531;-73
2021/03/08 11:05:31;;;;;;;13.65;11.60;;;;;;;6.10;50.25;95594.63;5008752;28;20044;-74
2021/03/08 11:07:57;;;;;;;14.75;13.10;;;;;;;5.61;51.77;95591.63;5009232;28;20038;-74
2021/03/08 11:10:38;;;;;;;15.57;12.20;;;;;;;5.97;49.85;95588.00;5009039;28;20033;-74
2021/03/08 11:13:08;;;;;;;16.05;12.30;;;;;;;5.16;51.09;95575.41;5011143;28;20056;-73
2021/03/08 11:15:38;;;;;;;13.35;11.98;;;;;;;4.83;51.96;95579.25;5009161;28;20042;-73
2021/03/08 11:18:20;;;;;;;14.07;12.70;;;;;;;4.96;51.64;95564.78;5009390;28;20062;-75
2021/03/08 11:20:46;;;;;;;13.25;11.10;;;;;;;4.68;51.68;95587.88;5001713;28;20046;-73
2021/03/08 11:23:11;;;;;;;14.23;12.00;;;;;;;5.37;51.38;95578.91;5001372;28;20035;-73
2021/03/08 11:25:41;;;;;;;13.25;11.57;;;;;;;4.78;51.85;95592.41;4990915;28;20049;-73
2021/03/08 11:28:10;;;;;;;14.25;12.15;;;;;;;5.65;50.80;95592.72;5010646;28;20033;-80
2021/03/08 11:30:37;;;;;;;17.05;11.88;;;;;;;5.29;50.64;95570.72;4992226;28;20089;-79
2021/03/08 11:33:07;;;;;;;14.77;11.20;;;;;;;5.54;50.69;95572.63;5004385;28;20034;-80
2021/03/08 11:35:34;;;;;;;13.55;11.10;;;;;;;5.44;50.43;95589.22;5015724;28;20185;-81